.
WxDataArchive / Data Records for 2012-08-22
2012-08-21 August 2012 2012-08-23

Data Records for Wednesday, 22 August 2012

Time	Temp	Chill	HIndex	Humid	Dewpt	 Wind 	HiWind	WindDir	Rain 	Barom 
-----	----	-----	------	-----	-----	------	------	-------	-----	----- 
00:00	59.2	59.2	59.2	76	51.6	0	0	---	0.00	30.086 
00:05	59.0	59.0	59.0	77	51.8	0	0	---	0.00	30.086 
00:10	58.9	58.9	58.9	77	51.7	0	0	---	0.00	30.086 
00:15	58.6	58.6	58.6	77	51.4	0	0	---	0.00	30.079 
00:20	58.4	58.4	58.4	77	51.2	0	0	---	0.00	30.079 
00:25	58.3	58.3	58.3	78	51.5	0	0	---	0.00	30.079 
00:30	58.3	58.3	58.3	78	51.5	0	0	---	0.00	30.081 
00:35	58.1	58.1	58.1	79	51.6	0	0	---	0.00	30.081 
00:40	58.0	58.0	58.0	79	51.5	0	0	---	0.00	30.081 
00:45	57.8	57.8	57.8	79	51.3	0	0	---	0.00	30.083 
00:50	57.6	57.6	57.6	79	51.1	0	0	---	0.00	30.083 
00:55	57.5	57.5	57.5	79	51.0	0	0	---	0.00	30.083 
01:00	57.3	57.3	57.3	80	51.2	0	0	---	0.00	30.081 
01:05	57.3	57.3	57.3	81	51.5	0	0	---	0.00	30.081 
01:10	57.3	57.3	57.3	81	51.5	0	0	---	0.00	30.081 
01:15	57.3	57.3	57.3	81	51.5	0	0	---	0.00	30.080 
01:20	57.2	57.2	57.2	81	51.4	0	0	---	0.00	30.080 
01:25	57.2	57.2	57.2	81	51.4	0	0	---	0.00	30.080 
01:30	57.0	57.0	57.0	82	51.6	0	0	---	0.00	30.079 
01:35	57.0	57.0	57.0	82	51.6	0	0	---	0.00	30.079 
01:40	56.9	56.9	56.9	83	51.8	0	0	---	0.00	30.079 
01:45	56.9	56.9	56.9	83	51.8	0	0	---	0.00	30.076 
01:50	56.9	56.9	56.9	83	51.8	0	0	---	0.00	30.076 
01:55	56.9	56.9	56.9	83	51.8	0	0	---	0.00	30.076 
02:00	56.9	56.9	56.9	84	52.1	0	0	---	0.00	30.077 
02:05	56.7	56.7	56.7	84	51.9	0	0	---	0.00	30.077 
02:10	56.6	56.6	56.6	84	51.8	0	0	---	0.00	30.077 
02:15	56.6	56.6	56.6	84	51.8	0	0	---	0.00	30.073 
02:20	56.5	56.5	56.5	84	51.7	0	0	---	0.00	30.073 
02:25	56.5	56.5	56.5	84	51.7	0	0	---	0.00	30.073 
02:30	56.3	56.3	56.3	85	51.8	0	0	---	0.00	30.073 
02:35	56.2	56.2	56.2	85	51.7	0	0	---	0.00	30.073 
02:40	56.0	56.0	56.0	85	51.6	0	0	---	0.00	30.073 
02:45	56.0	56.0	56.0	86	51.9	0	0	---	0.00	30.072 
02:50	55.9	55.9	55.9	86	51.8	0	0	---	0.00	30.072 
02:55	55.7	55.7	55.7	86	51.6	0	0	---	0.00	30.072 
03:00	55.7	55.7	55.7	87	51.9	0	0	---	0.00	30.072 
03:05	55.7	55.7	55.7	87	51.9	0	0	---	0.00	30.072 
03:10	55.6	55.6	55.6	87	51.8	0	0	---	0.00	30.072 
03:15	55.4	55.4	55.4	87	51.6	0	0	---	0.00	30.072 
03:20	55.3	55.3	55.3	88	51.8	0	0	---	0.00	30.072 
03:25	55.3	55.3	55.3	88	51.8	0	0	---	0.00	30.072 
03:30	55.1	55.1	55.1	88	51.6	0	0	---	0.00	30.072 
03:35	55.1	55.1	55.1	88	51.6	0	0	---	0.00	30.072 
03:40	55.0	55.0	55.0	88	51.5	0	0	---	0.00	30.072 
03:45	54.8	54.8	54.8	88	51.3	0	0	---	0.00	30.071 
03:50	54.7	54.7	54.7	89	51.5	0	0	---	0.00	30.071 
03:55	54.5	54.5	54.5	89	51.3	0	0	---	0.00	30.071 
04:00	54.4	54.4	54.4	89	51.2	0	0	---	0.00	30.074 
04:05	54.2	54.2	54.2	89	51.0	0	0	---	0.00	30.074 
04:10	54.2	54.2	54.2	89	51.0	0	0	---	0.00	30.074 
04:15	54.1	54.1	54.1	90	51.2	0	0	---	0.00	30.077 
04:20	54.1	54.1	54.1	90	51.2	0	0	---	0.00	30.077 
04:25	53.9	53.9	53.9	90	51.0	0	0	---	0.00	30.077 
04:30	53.9	53.9	53.9	90	51.0	0	0	---	0.00	30.075 
04:35	53.8	53.8	53.8	90	50.9	0	0	---	0.00	30.075 
04:40	53.8	53.8	53.8	90	50.9	0	0	---	0.00	30.075 
04:45	53.6	53.6	53.6	90	50.7	0	0	---	0.00	30.081 
04:50	53.5	53.5	53.5	91	50.9	0	0	---	0.00	30.081 
04:55	53.5	53.5	53.5	91	50.9	0	0	---	0.00	30.081 
05:00	53.3	53.3	53.3	91	50.7	0	0	---	0.00	30.084 
05:05	53.2	53.2	53.2	91	50.6	0	0	---	0.00	30.084 
05:10	53.1	53.1	53.1	91	50.5	0	0	---	0.00	30.084 
05:15	53.1	53.1	53.1	91	50.5	0	0	---	0.00	30.084 
05:20	52.9	52.9	52.9	91	50.3	0	0	---	0.00	30.084 
05:25	52.8	52.8	52.8	91	50.2	0	0	---	0.00	30.084 
05:30	52.6	52.6	52.6	91	50.0	0	0	---	0.00	30.085 
05:35	52.6	52.6	52.6	92	50.3	0	0	---	0.00	30.085 
05:40	52.5	52.5	52.5	92	50.2	0	0	---	0.00	30.085 
05:45	52.3	52.3	52.3	92	50.0	0	0	---	0.00	30.088 
05:50	52.3	52.3	52.3	92	50.0	0	0	---	0.00	30.088 
05:55	52.2	52.2	52.2	92	49.9	0	0	---	0.00	30.088 
06:00	52.2	52.2	52.2	92	49.9	0	0	---	0.00	30.093 
06:05	52.2	52.2	52.2	92	49.9	0	0	---	0.00	30.093 
06:10	52.0	52.0	52.0	92	49.7	0	0	---	0.00	30.093 
06:15	52.0	52.0	52.0	92	49.7	0	0	---	0.00	30.098 
06:20	52.0	52.0	52.0	92	49.7	0	0	---	0.00	30.098 
06:25	51.9	51.9	51.9	92	49.6	0	0	---	0.00	30.098 
06:30	51.7	51.7	51.7	92	49.5	0	0	---	0.00	30.104 
06:35	51.7	51.7	51.7	92	49.5	0	0	---	0.00	30.104 
06:40	51.6	51.6	51.6	92	49.4	0	0	---	0.00	30.104 
06:45	51.6	51.6	51.6	92	49.4	0	0	---	0.00	30.107 
06:50	51.6	51.6	51.6	93	49.6	0	0	---	0.00	30.107 
06:55	51.6	51.6	51.6	93	49.6	0	0	---	0.00	30.107 
07:00	51.6	51.6	51.6	93	49.6	0	0	---	0.00	30.114 
07:05	51.4	51.4	51.4	93	49.4	0	0	---	0.00	30.114 
07:10	51.4	51.4	51.4	93	49.4	0	0	---	0.00	30.114 
07:15	51.3	51.3	51.3	93	49.3	0	0	---	0.00	30.123 
07:20	51.3	51.3	51.3	93	49.3	0	0	---	0.00	30.123 
07:25	51.4	51.4	51.4	93	49.4	0	0	---	0.00	30.123 
07:30	51.6	51.6	51.6	93	49.6	0	0	---	0.00	30.125 
07:35	51.9	51.9	51.9	93	49.9	0	0	---	0.00	30.125 
07:40	52.0	52.0	52.0	93	50.0	0	0	---	0.00	30.125 
07:45	52.2	52.2	52.2	94	50.5	0	0	---	0.00	30.127 
07:50	52.8	52.8	52.8	94	51.1	0	0	---	0.00	30.127 
07:55	53.2	53.2	53.2	94	51.5	0	0	---	0.00	30.127 
08:00	53.8	53.8	53.8	94	52.1	0	0	---	0.00	30.130 
08:05	54.4	54.4	54.4	94	52.7	0	0	---	0.00	30.130 
08:10	55.1	55.1	55.1	94	53.4	0	0	---	0.00	30.130 
08:15	55.9	55.9	55.9	94	54.2	0	0	---	0.00	30.133 
08:20	57.0	57.0	57.0	94	55.3	0	0	---	0.00	30.133 
08:25	58.3	58.3	58.3	94	56.6	0	0	---	0.00	30.133 
08:30	59.3	59.3	59.3	93	57.3	0	0	---	0.00	30.134 
08:35	60.4	60.4	60.4	91	57.8	0	0	---	0.00	30.134 
08:40	61.3	61.3	61.3	89	58.0	0	0	---	0.00	30.134 
08:45	62.0	62.0	62.0	87	58.1	0	0	---	0.00	30.134 
08:50	62.9	62.9	62.9	84	58.0	0	0	---	0.00	30.134 
08:55	63.7	63.7	63.7	80	57.4	0	0	---	0.00	30.134 
09:00	64.5	64.5	64.5	76	56.8	0	0	---	0.00	30.135 
09:05	65.2	65.2	65.2	73	56.3	0	0	---	0.00	30.135 
09:10	65.6	65.6	65.6	72	56.3	0	0	---	0.00	30.135 
09:15	66.1	66.1	66.1	71	56.4	0	0	---	0.00	30.139 
09:20	66.3	66.3	66.3	69	55.8	0	0	---	0.00	30.139 
09:25	66.4	66.4	66.4	69	55.9	0	0	---	0.00	30.139 
09:30	66.8	66.8	66.8	69	56.3	0	0	---	0.00	30.138 
09:35	67.3	67.3	67.3	67	56.0	0	0	---	0.00	30.138 
09:40	68.1	68.1	68.1	66	56.3	0	0	---	0.00	30.138 
09:45	68.8	68.8	68.8	62	55.2	0	0	---	0.00	30.139 
09:50	69.3	69.3	69.3	61	55.3	0	0	---	0.00	30.139 
09:55	69.9	69.9	69.9	59	54.9	0	0	---	0.00	30.139 
10:00	70.6	70.6	70.6	56	54.1	0	0	---	0.00	30.139 
10:05	71.3	71.3	71.3	56	54.8	0	0	---	0.00	30.139 
10:10	72.1	72.1	72.1	53	54.0	0	0	---	0.00	30.139 
10:15	73.0	73.0	73.0	49	52.7	0	0	---	0.00	30.139 
10:20	73.9	73.9	73.9	49	53.5	0	0	---	0.00	30.139 
10:25	74.6	74.6	74.6	47	53.0	0	0	---	0.00	30.139 
10:30	75.3	75.3	77.7	45	52.5	0	2	270	0.00	30.138 
10:35	76.0	76.0	78.0	45	53.1	0	3	270	0.00	30.138 
10:40	76.3	76.3	78.1	46	54.0	0	3	270	0.00	30.138 
10:45	77.0	77.0	78.4	43	52.8	0	1	270	0.00	30.139 
10:50	77.6	77.6	78.5	40	51.3	0	1	270	0.00	30.139 
10:55	77.6	77.6	78.4	38	50.0	0	1	270	0.00	30.139 
11:00	77.9	77.9	78.4	36	48.8	0	3	270	0.00	30.142 
11:05	78.3	78.3	78.8	38	50.6	0	2	270	0.00	30.142 
11:10	78.5	78.5	78.9	39	51.5	1	2	270	0.00	30.142 
11:15	78.6	78.6	79.0	39	51.5	0	1	270	0.00	30.139 
11:20	78.5	78.5	78.9	39	51.5	0	1	270	0.00	30.139 
11:25	78.3	78.3	78.8	39	51.3	0	2	270	0.00	30.139 
11:30	78.3	78.3	79.0	42	53.3	0	2	270	0.00	30.141 
11:35	78.3	78.3	78.7	37	49.9	1	3	270	0.00	30.141 
11:40	79.0	79.0	79.2	38	51.2	0	1	270	0.00	30.141 
11:45	79.0	79.0	79.2	38	51.2	0	1	270	0.00	30.136 
11:50	78.6	78.6	78.9	37	50.1	1	2	270	0.00	30.136 
11:55	78.6	78.6	78.9	37	50.1	1	2	270	0.00	30.136 
12:00	78.8	78.8	79.0	38	51.0	1	2	270	0.00	30.139 
12:05	78.1	78.1	78.6	37	49.7	1	2	270	0.00	30.139 
12:10	77.9	77.9	78.8	42	52.9	0	1	270	0.00	30.139 
12:15	78.1	78.1	78.7	39	51.1	0	3	270	0.00	30.137 
12:20	78.5	78.5	78.9	38	50.8	0	3	270	0.00	30.137 
12:25	78.8	78.8	79.0	38	51.0	1	2	270	0.00	30.137 
12:30	79.2	79.2	79.1	35	49.2	0	2	270	0.00	30.135 
12:35	79.6	79.6	79.4	37	51.0	0	1	270	0.00	30.135 
12:40	79.8	79.8	79.8	40	53.3	1	3	270	0.00	30.135 
12:45	79.8	79.8	79.6	38	51.9	0	2	270	0.00	30.132 
12:50	80.3	80.3	79.9	37	51.6	0	2	270	0.00	30.132 
12:55	80.7	80.7	80.2	37	52.0	1	4	225	0.00	30.132 
13:00	79.8	79.8	79.3	33	48.1	1	3	270	0.00	30.130 
13:05	79.8	79.8	79.6	38	51.9	0	2	292	0.00	30.130 
13:10	80.3	80.3	79.7	35	50.1	1	4	292	0.00	30.130 
13:15	80.9	80.9	80.2	36	51.4	1	2	22	0.00	30.123 
13:20	80.9	80.9	80.2	36	51.4	1	4	22	0.00	30.123 
13:25	80.9	80.9	80.4	38	52.9	0	2	22	0.00	30.123 
13:30	81.1	81.1	80.3	35	50.8	1	2	22	0.00	30.118 
13:35	81.1	81.1	80.4	36	51.6	0	2	22	0.00	30.118 
13:40	80.9	80.9	79.9	32	48.2	1	3	315	0.00	30.118 
13:45	80.3	80.3	79.6	33	48.5	1	3	315	0.00	30.116 
13:50	80.1	80.1	79.5	33	48.4	0	2	315	0.00	30.116 
13:55	80.7	80.7	80.1	36	51.2	0	1	315	0.00	30.116 
14:00	81.6	81.6	80.5	33	49.7	0	2	315	0.00	30.111 
14:05	82.0	82.0	80.9	35	51.6	1	3	68	0.00	30.111 
14:10	81.6	81.6	80.5	34	50.5	1	3	292	0.00	30.111 
14:15	81.6	81.6	80.5	34	50.5	1	3	292	0.00	30.105 
14:20	81.2	81.2	80.1	32	48.5	1	3	292	0.00	30.105 
14:25	80.7	80.7	80.0	35	50.5	0	2	315	0.00	30.105 
14:30	80.9	80.9	80.1	34	49.9	1	3	315	0.00	30.102 
14:35	81.2	81.2	80.3	34	50.1	1	3	112	0.00	30.102 
14:40	81.6	81.6	80.6	35	51.3	1	3	112	0.00	30.102 
14:45	82.0	82.0	80.7	32	49.2	1	3	112	0.00	30.098 
14:50	81.8	81.8	80.6	33	49.9	1	4	90	0.00	30.098 
14:55	81.8	81.8	80.6	33	49.9	1	5	90	0.00	30.098 
15:00	82.2	82.2	81.1	35	51.8	1	5	90	0.00	30.097 
15:05	82.6	82.6	81.2	33	50.6	0	1	90	0.00	30.097 
15:10	83.0	83.0	81.4	32	50.1	1	3	90	0.00	30.097 
15:15	83.2	83.2	81.5	31	49.4	0	2	90	0.00	30.093 
15:20	83.2	83.2	81.7	33	51.1	1	3	270	0.00	30.093 
15:25	83.4	83.4	81.6	31	49.6	0	3	315	0.00	30.093 
15:30	83.2	83.2	81.2	28	46.7	1	2	45	0.00	30.089 
15:35	82.8	82.8	80.9	28	46.3	1	4	68	0.00	30.089 
15:40	82.8	82.8	81.3	33	50.7	0	2	0	0.00	30.089 
15:45	82.6	82.6	80.9	30	48.0	1	3	338	0.00	30.088 
15:50	82.6	82.6	81.0	31	48.9	1	4	338	0.00	30.088 
15:55	82.4	82.4	80.9	32	49.5	1	3	292	0.00	30.088 
16:00	82.4	82.4	81.0	33	50.4	0	1	292	0.00	30.085 
16:05	82.0	82.0	80.5	30	47.5	0	2	292	0.00	30.085 
16:10	82.0	82.0	80.8	34	50.8	1	3	292	0.00	30.085 
16:15	81.8	81.8	80.4	31	48.2	1	2	338	0.00	30.084 
16:20	81.8	81.8	80.3	30	47.3	0	1	338	0.00	30.084 
16:25	81.6	81.6	80.3	31	48.0	0	2	338	0.00	30.084 
16:30	81.8	81.8	80.6	33	49.9	0	2	338	0.00	30.077 
16:35	82.0	82.0	80.6	31	48.4	0	2	338	0.00	30.077 
16:40	82.0	82.0	80.5	30	47.5	1	3	338	0.00	30.077 
16:45	81.8	81.8	80.6	33	49.9	0	2	338	0.00	30.075 
16:50	81.6	81.6	80.5	34	50.5	0	3	292	0.00	30.075 
16:55	81.8	81.8	80.7	34	50.7	0	3	292	0.00	30.075 
17:00	81.8	81.8	80.8	35	51.4	1	3	248	0.00	30.075 
17:05	81.8	81.8	80.6	33	49.9	0	3	68	0.00	30.075 
17:10	81.6	81.6	80.5	34	50.5	0	2	68	0.00	30.075 
17:15	81.6	81.6	80.6	35	51.3	0	2	0	0.00	30.073 
17:20	81.6	81.6	80.4	32	48.9	1	4	90	0.00	30.073 
17:25	81.4	81.4	80.3	33	49.5	0	2	90	0.00	30.073 
17:30	81.1	81.1	80.1	33	49.2	1	2	22	0.00	30.074 
17:35	80.9	80.9	80.1	35	50.7	0	2	315	0.00	30.074 
17:40	80.9	80.9	80.1	35	50.7	0	2	315	0.00	30.074 
17:45	80.9	80.9	80.3	37	52.2	0	3	248	0.00	30.074 
17:50	80.7	80.7	79.9	34	49.7	1	3	248	0.00	30.074 
17:55	80.5	80.5	79.9	36	51.1	0	2	248	0.00	30.074 
18:00	80.5	80.5	79.6	32	47.9	0	2	248	0.00	30.074 
18:05	80.5	80.5	79.6	31	47.1	0	2	248	0.00	30.074 
18:10	80.3	80.3	79.5	32	47.7	0	2	248	0.00	30.074 
18:15	80.3	80.3	79.5	32	47.7	0	2	248	0.00	30.073 
18:20	80.1	80.1	79.7	36	50.7	0	2	248	0.00	30.073 
18:25	79.9	79.9	79.6	37	51.3	0	1	248	0.00	30.073 
18:30	79.6	79.6	79.4	36	50.3	0	1	248	0.00	30.074 
18:35	79.4	79.4	79.4	38	51.6	0	2	248	0.00	30.074 
18:40	79.2	79.2	79.0	34	48.4	0	3	248	0.00	30.074 
18:45	79.2	79.2	79.1	35	49.2	0	1	248	0.00	30.074 
18:50	79.0	79.0	79.0	35	49.0	0	2	248	0.00	30.074 
18:55	78.8	78.8	78.8	34	48.0	0	2	248	0.00	30.074 
19:00	78.8	78.8	78.9	36	49.6	1	3	248	0.00	30.073 
19:05	78.6	78.6	78.9	37	50.1	0	3	315	0.00	30.073 
19:10	78.5	78.5	78.9	38	50.8	0	1	315	0.00	30.073 
19:15	78.1	78.1	78.5	36	48.9	0	2	292	0.00	30.070 
19:20	77.9	77.9	78.5	37	49.5	0	1	292	0.00	30.070 
19:25	77.7	77.7	78.5	38	50.0	0	1	292	0.00	30.070 
19:30	77.6	77.6	78.5	39	50.7	0	1	292	0.00	30.070 
19:35	77.4	77.4	78.4	39	50.5	0	1	292	0.00	30.070 
19:40	77.0	77.0	78.2	39	50.1	0	1	292	0.00	30.070 
19:45	76.8	76.8	78.1	40	50.6	0	1	292	0.00	30.072 
19:50	76.7	76.7	78.1	40	50.5	0	0	---	0.00	30.072 
19:55	76.5	76.5	78.1	41	51.0	0	0	---	0.00	30.072 
20:00	76.1	76.1	77.9	41	50.7	0	0	---	0.00	30.071 
20:05	76.0	76.0	77.9	42	51.2	0	0	---	0.00	30.071 
20:10	75.6	75.6	77.8	43	51.5	0	1	292	0.00	30.071 
20:15	75.4	75.4	77.7	43	51.3	0	0	---	0.00	30.058 
20:20	75.1	75.1	77.6	45	52.3	0	0	---	0.00	30.058 
20:25	74.7	74.7	74.7	46	52.5	0	0	---	0.00	30.058 
20:30	74.4	74.4	74.4	47	52.8	0	0	---	0.00	30.059 
20:35	73.7	73.7	73.7	48	52.8	0	0	---	0.00	30.059 
20:40	73.3	73.3	73.3	49	53.0	0	0	---	0.00	30.059 
20:45	72.8	72.8	72.8	49	52.5	0	0	---	0.00	30.060 
20:50	72.5	72.5	72.5	50	52.8	0	0	---	0.00	30.060 
20:55	72.0	72.0	72.0	52	53.4	0	0	---	0.00	30.060 
21:00	71.5	71.5	71.5	53	53.5	0	0	---	0.00	30.062 
21:05	70.9	70.9	70.9	54	53.4	0	0	---	0.00	30.062 
21:10	70.4	70.4	70.4	55	53.4	0	0	---	0.00	30.062 
21:15	69.9	69.9	69.9	57	54.0	0	0	---	0.00	30.061 
21:20	69.4	69.4	69.4	57	53.5	0	0	---	0.00	30.061 
21:25	68.9	68.9	68.9	58	53.5	0	0	---	0.00	30.061 
21:30	68.4	68.4	68.4	59	53.5	0	0	---	0.00	30.067 
21:35	68.1	68.1	68.1	60	53.7	0	0	---	0.00	30.067 
21:40	67.8	67.8	67.8	61	53.9	0	0	---	0.00	30.067 
21:45	67.3	67.3	67.3	62	53.8	0	0	---	0.00	30.073 
21:50	67.1	67.1	67.1	63	54.1	0	0	---	0.00	30.073 
21:55	66.8	66.8	66.8	63	53.8	0	0	---	0.00	30.073 
22:00	66.4	66.4	66.4	64	53.8	0	0	---	0.00	30.078 
22:05	66.1	66.1	66.1	65	54.0	0	0	---	0.00	30.078 
22:10	65.8	65.8	65.8	66	54.1	0	0	---	0.00	30.078 
22:15	65.5	65.5	65.5	66	53.8	0	0	---	0.00	30.072 
22:20	65.2	65.2	65.2	67	54.0	0	0	---	0.00	30.072 
22:25	65.0	65.0	65.0	68	54.2	0	0	---	0.00	30.072 
22:30	64.8	64.8	64.8	69	54.4	0	0	---	0.00	30.078 
22:35	64.5	64.5	64.5	69	54.1	0	0	---	0.00	30.078 
22:40	64.3	64.3	64.3	70	54.3	0	0	---	0.00	30.078 
22:45	64.0	64.0	64.0	71	54.4	0	0	---	0.00	30.077 
22:50	63.9	63.9	63.9	71	54.3	0	0	---	0.00	30.077 
22:55	63.5	63.5	63.5	72	54.3	0	0	---	0.00	30.077 
23:00	63.4	63.4	63.4	73	54.6	0	0	---	0.00	30.080 
23:05	63.2	63.2	63.2	74	54.8	0	0	---	0.00	30.080 
23:10	63.1	63.1	63.1	75	55.0	0	0	---	0.00	30.080 
23:15	62.9	62.9	62.9	75	54.8	0	0	---	0.00	30.080 
23:20	62.7	62.7	62.7	76	55.0	0	0	---	0.00	30.080 
23:25	62.4	62.4	62.4	76	54.7	0	0	---	0.00	30.080 
23:30	62.3	62.3	62.3	77	55.0	0	0	---	0.00	30.084 
23:35	62.1	62.1	62.1	77	54.8	0	0	---	0.00	30.084 
23:40	62.0	62.0	62.0	78	55.1	0	0	---	0.00	30.084 
23:45	61.8	61.8	61.8	78	54.9	0	0	---	0.00	30.084 
23:50	61.6	61.6	61.6	79	55.0	0	0	---	0.00	30.084 
23:55	61.5	61.5	61.5	79	54.9	0	0	---	0.00	30.084 

CoCoRaHS
IN-AL-39
A2 Web Hosting
Creative Commons License
GoDaddy
search engine by freefind advanced

loaded 2018-11-15 18:36:43 • last modified 2010-11-18 10:43:29
Privacy PolicyDisclaimer
• wx.awcolley.com is powered by PmWiki v.2002016 •
• all content (unless otherwise noted) © 2018 A W Colley